Time;durP1;ratioP1;P1;durP2;ratioP2;P2;SDS_P1;SDS_P2;PMS_P1;PMS_P2;Temp;Humidity;BMP_temperature;BMP_pressure;BME280_temperature;BME280_humidity;BME280_pressure;Samples;Min_cycle;Max_cycle;Signal;HPM_P1;HPM_P2
2022/05/31 00:01:28;;;;;;;3.70;3.10;;;;;;;16.20;45.04;98952.19;4183777;28;20227;-70
2022/05/31 00:03:30;;;;;;;4.10;2.90;;;;;;;16.19;44.72;98961.25;4177996;28;20242;-70
2022/05/31 00:05:32;;;;;;;4.53;2.90;;;;;;;16.32;44.90;98933.53;4184814;28;20284;-70
2022/05/31 00:07:34;;;;;;;2.77;2.30;;;;;;;16.42;44.47;98917.78;4183399;28;20289;-70
2022/05/31 00:09:35;;;;;;;2.43;2.23;;;;;;;16.46;44.47;98921.66;4182250;28;20231;-70
2022/05/31 00:11:37;;;;;;;3.13;2.30;;;;;;;16.06;45.32;98943.38;4183413;28;20235;-70
2022/05/31 00:13:39;;;;;;;2.83;2.60;;;;;;;15.89;45.60;98935.00;4181012;28;20856;-70
2022/05/31 00:15:41;;;;;;;3.83;2.40;;;;;;;16.17;45.05;98912.38;4177926;28;20257;-70
2022/05/31 00:17:42;;;;;;;3.27;2.80;;;;;;;15.97;45.21;98963.44;4181793;28;21177;-70
2022/05/31 00:19:44;;;;;;;2.77;2.53;;;;;;;15.79;46.01;98959.63;4183247;28;20247;-70
2022/05/31 00:22:03;;;;;;;2.40;2.20;;;;;;;16.03;45.43;98933.09;4179539;28;20758;-70
2022/05/31 00:24:06;;;;;;;4.30;2.80;;;;;;;15.85;45.68;98924.94;4184687;28;20282;-69
2022/05/31 00:26:08;;;;;;;4.90;2.87;;;;;;;15.94;45.39;98896.84;4180801;28;20227;-71
2022/05/31 00:28:10;;;;;;;2.97;2.60;;;;;;;15.74;45.82;98934.47;4182851;28;20238;-70
2022/05/31 00:30:13;;;;;;;4.43;2.53;;;;;;;15.94;45.61;98896.84;4182582;28;20581;-70
2022/05/31 00:32:21;;;;;;;2.57;2.30;;;;;;;15.23;46.63;98955.59;4181851;28;20264;-71
2022/05/31 00:34:22;;;;;;;4.20;3.20;;;;;;;15.57;46.27;98909.97;4179730;28;20889;-69
2022/05/31 00:36:24;;;;;;;3.77;2.67;;;;;;;15.58;46.17;98911.63;4184584;28;20199;-69
2022/05/31 00:38:27;;;;;;;2.50;2.30;;;;;;;15.17;46.35;98966.31;4160698;28;20201;-69
2022/05/31 00:40:31;;;;;;;4.13;2.80;;;;;;;15.42;46.39;98916.44;4175679;28;20543;-72
2022/05/31 00:42:48;;;;;;;3.60;2.70;;;;;;;15.91;45.93;98854.38;4182027;28;20269;-69
2022/05/31 00:44:51;;;;;;;5.00;2.80;;;;;;;15.33;45.91;98957.03;4180322;28;20240;-69
2022/05/31 00:46:57;;;;;;;2.73;2.53;;;;;;;14.88;47.19;98955.03;4183566;28;20312;-71
2022/05/31 00:49:03;;;;;;;4.20;2.70;;;;;;;15.48;46.15;98901.34;4181294;28;20238;-71
2022/05/31 00:51:14;;;;;;;4.27;2.60;;;;;;;14.75;47.53;98939.81;4180399;28;20231;-69
2022/05/31 00:53:25;;;;;;;4.17;3.00;;;;;;;15.35;46.71;98885.31;4182022;28;20289;-71
2022/05/31 00:55:50;;;;;;;4.30;2.87;;;;;;;14.98;46.94;98934.00;4177747;28;20652;-71
2022/05/31 00:58:07;;;;;;;3.80;3.10;;;;;;;15.20;46.72;98907.84;4182314;28;20223;-70
2022/05/31 01:00:13;;;;;;;2.80;2.50;;;;;;;15.28;46.71;98874.63;4181045;28;20231;-71
2022/05/31 01:02:17;;;;;;;4.40;2.80;;;;;;;15.34;46.39;98879.16;4180834;28;20958;-71
2022/05/31 01:04:44;;;;;;;3.27;2.97;;;;;;;15.71;45.92;98883.97;4181521;28;21129;-71
2022/05/31 01:06:46;;;;;;;4.60;2.80;;;;;;;15.46;46.38;98919.50;4182454;28;20231;-71
2022/05/31 01:08:48;;;;;;;4.77;2.70;;;;;;;14.93;47.44;98946.38;4178888;28;20292;-71
2022/05/31 01:10:49;;;;;;;3.20;2.60;;;;;;;15.25;47.03;98904.50;4182475;28;20235;-71
2022/05/31 01:12:52;;;;;;;4.80;2.97;;;;;;;15.11;47.01;98909.09;4183680;28;20284;-70
2022/05/31 01:14:54;;;;;;;4.07;2.90;;;;;;;15.40;46.59;98880.97;4178407;28;20845;-70
2022/05/31 01:16:58;;;;;;;2.87;2.63;;;;;;;15.23;46.83;98922.66;4181310;28;20227;-71
2022/05/31 01:19:00;;;;;;;3.67;2.50;;;;;;;15.05;46.90;98948.22;4183555;28;20231;-71
2022/05/31 01:21:02;;;;;;;4.87;3.17;;;;;;;15.15;46.99;98933.59;4181577;28;20296;-70
2022/05/31 01:23:12;;;;;;;3.27;2.60;;;;;;;15.14;47.18;98915.88;4180922;28;20288;-71
2022/05/31 01:25:25;;;;;;;3.30;2.70;;;;;;;15.08;47.33;98933.59;4183476;28;20296;-71
2022/05/31 01:28:00;;;;;;;3.00;2.77;;;;;;;15.85;45.70;98882.88;4180769;28;20237;-71
2022/05/31 01:30:06;;;;;;;3.50;3.20;;;;;;;16.06;45.20;98895.09;4180259;28;20234;-69
2022/05/31 01:32:12;;;;;;;3.80;2.70;;;;;;;15.51;46.28;98926.91;4180797;28;20228;-71
2022/05/31 01:34:32;;;;;;;4.17;2.57;;;;;;;15.21;46.65;98976.41;4179097;28;20220;-70
2022/05/31 01:36:42;;;;;;;3.03;2.83;;;;;;;15.80;45.89;98939.78;4182769;28;20239;-71
2022/05/31 01:38:52;;;;;;;3.80;3.00;;;;;;;15.83;45.91;98905.56;4178535;28;20339;-71
2022/05/31 01:41:43;;;;;;;5.20;3.00;;;;;;;16.23;45.32;98865.09;4183664;28;20525;-71
2022/05/31 01:43:47;;;;;;;5.00;3.10;;;;;;;16.02;45.38;98946.72;4161962;28;20223;-71
2022/05/31 01:46:04;;;;;;;4.33;2.63;;;;;;;15.68;46.16;98972.84;4180086;28;20254;-71
2022/05/31 01:48:07;;;;;;;4.07;2.60;;;;;;;15.00;47.22;98992.69;4179338;28;20960;-70
2022/05/31 01:50:12;;;;;;;5.03;2.90;;;;;;;15.22;46.90;98963.84;4183717;28;20234;-70
2022/05/31 01:52:14;;;;;;;3.57;2.70;;;;;;;15.39;46.46;98964.25;4183050;28;20711;-70
2022/05/31 01:54:18;;;;;;;4.23;2.70;;;;;;;15.30;46.67;98939.53;4182187;28;20208;-70
2022/05/31 01:56:21;;;;;;;4.20;2.93;;;;;;;14.89;47.50;98941.44;4182831;28;20830;-70
2022/05/31 01:58:28;;;;;;;3.33;2.87;;;;;;;14.88;47.53;98971.09;4180850;28;20719;-70
2022/05/31 02:00:30;;;;;;;4.33;2.80;;;;;;;15.01;47.25;98956.88;4178614;28;20242;-70
2022/05/31 02:02:31;;;;;;;3.50;2.80;;;;;;;15.42;46.49;98932.50;4182523;28;20257;-70
2022/05/31 02:04:33;;;;;;;3.83;2.87;;;;;;;15.61;46.15;98917.38;4181252;28;23130;-70
2022/05/31 02:06:40;;;;;;;3.53;2.93;;;;;;;15.40;46.51;98963.19;4182758;28;20344;-69
2022/05/31 02:08:41;;;;;;;3.63;2.60;;;;;;;14.70;47.22;99043.94;4182073;28;20830;-70
2022/05/31 02:10:44;;;;;;;2.87;2.57;;;;;;;14.82;47.55;98988.78;4174132;28;20250;-70
2022/05/31 02:12:46;;;;;;;3.20;2.90;;;;;;;15.38;46.80;98925.91;4180672;28;20688;-69
2022/05/31 02:14:48;;;;;;;3.90;3.50;;;;;;;15.44;46.26;98948.38;4181597;28;20234;-69
2022/05/31 02:16:50;;;;;;;3.43;2.80;;;;;;;16.02;45.74;98883.19;4180487;28;20264;-69
2022/05/31 02:21:12;;;;;;;3.63;3.33;;;;;;;15.41;46.41;98957.63;4180513;28;20227;-69
2022/05/31 02:23:13;;;;;;;4.40;2.80;;;;;;;15.73;46.27;98908.72;4178383;28;20893;-70
2022/05/31 02:25:15;;;;;;;5.20;3.47;;;;;;;15.76;45.66;98959.19;4176712;28;20296;-70
2022/05/31 02:27:17;;;;;;;3.10;2.77;;;;;;;15.13;47.01;98990.00;4182247;28;20235;-70
2022/05/31 02:29:22;;;;;;;3.30;3.00;;;;;;;15.73;46.23;98914.88;4179827;28;20280;-70
2022/05/31 02:31:24;;;;;;;3.47;2.60;;;;;;;16.18;44.84;98925.59;4181239;28;20228;-70
2022/05/31 02:33:26;;;;;;;3.37;2.90;;;;;;;15.74;45.74;98988.06;4178313;28;20234;-70
2022/05/31 02:35:28;;;;;;;3.23;2.93;;;;;;;15.91;45.60;98946.34;4179270;28;20231;-70
2022/05/31 02:37:30;;;;;;;3.33;3.00;;;;;;;15.51;46.22;98985.84;4180455;28;20304;-70
2022/05/31 02:39:32;;;;;;;3.17;2.90;;;;;;;15.31;46.78;98992.06;4180427;28;20223;-69
2022/05/31 02:41:34;;;;;;;6.57;3.10;;;;;;;15.48;46.70;98949.56;4182903;28;20825;-70
2022/05/31 02:43:36;;;;;;;3.33;3.00;;;;;;;15.05;47.03;99014.31;4180933;28;20227;-70
2022/05/31 02:45:38;;;;;;;3.80;3.20;;;;;;;15.18;46.88;98976.81;4181026;28;21018;-70
2022/05/31 02:47:40;;;;;;;3.10;2.80;;;;;;;15.00;47.06;98987.34;4179898;28;20292;-70
2022/05/31 02:49:45;;;;;;;4.23;3.00;;;;;;;14.71;48.36;98957.25;4179380;28;20289;-69
2022/05/31 02:51:47;;;;;;;4.47;3.10;;;;;;;15.40;46.59;98921.16;4172447;28;20238;-70
2022/05/31 02:53:49;;;;;;;7.53;3.93;;;;;;;15.19;46.87;98957.06;4177760;28;20959;-70
2022/05/31 02:55:51;;;;;;;5.00;3.17;;;;;;;14.78;47.59;98986.72;4178502;28;20234;-70
2022/05/31 02:57:52;;;;;;;3.17;2.87;;;;;;;15.50;46.64;98910.00;4180598;28;20223;-69
2022/05/31 02:59:54;;;;;;;3.87;3.07;;;;;;;15.27;46.91;98958.69;4179355;28;20243;-70
2022/05/31 03:01:56;;;;;;;5.27;3.40;;;;;;;15.41;46.48;98954.94;4181767;28;20298;-70
2022/05/31 03:03:58;;;;;;;4.30;3.00;;;;;;;15.12;47.27;98961.63;4180625;28;20238;-70
2022/05/31 03:06:00;;;;;;;3.00;2.80;;;;;;;15.54;46.22;98947.91;4182253;28;20227;-70
2022/05/31 03:08:02;;;;;;;2.83;2.63;;;;;;;15.15;46.81;98968.38;4181251;28;20235;-70
2022/05/31 03:10:04;;;;;;;4.57;3.37;;;;;;;14.80;47.74;98984.66;4176134;28;20683;-69
2022/05/31 03:12:11;;;;;;;5.50;3.57;;;;;;;14.86;47.20;99006.06;4181196;28;20306;-70
2022/05/31 03:14:37;;;;;;;4.20;3.00;;;;;;;14.73;47.49;99005.22;4176755;28;20238;-70
2022/05/31 03:16:42;;;;;;;3.87;3.50;;;;;;;15.15;46.87;98968.38;4179335;28;20227;-70
2022/05/31 03:18:51;;;;;;;3.27;2.97;;;;;;;14.82;48.16;98969.25;4180875;28;20325;-70
2022/05/31 03:20:57;;;;;;;3.57;3.27;;;;;;;15.01;47.62;98944.31;4181980;28;20284;-70
2022/05/31 03:23:09;;;;;;;5.33;3.17;;;;;;;15.25;47.12;98916.06;4175526;28;20223;-69
2022/05/31 03:25:18;;;;;;;5.40;2.90;;;;;;;15.01;47.58;98936.28;4178227;28;20231;-71
2022/05/31 03:27:20;;;;;;;3.80;3.30;;;;;;;15.59;46.28;98927.50;4181699;28;20814;-70
2022/05/31 03:29:22;;;;;;;3.13;2.93;;;;;;;15.18;47.14;98938.53;4176249;28;20280;-69
2022/05/31 03:31:24;;;;;;;3.67;3.10;;;;;;;15.24;47.08;98932.34;4179054;28;20231;-70
2022/05/31 03:33:26;;;;;;;3.57;3.20;;;;;;;14.68;47.77;99017.38;4172866;28;20242;-69
2022/05/31 03:35:28;;;;;;;4.20;2.97;;;;;;;15.40;46.90;98925.69;4181737;28;20242;-75
2022/05/31 03:37:30;;;;;;;3.33;3.03;;;;;;;15.18;47.18;98941.19;4177206;28;20621;-75
2022/05/31 03:39:31;;;;;;;3.40;3.10;;;;;;;15.56;46.30;98943.19;4178427;28;20647;-70
2022/05/31 03:41:35;;;;;;;3.43;3.13;;;;;;;15.64;46.20;98929.53;4176354;28;20265;-71
2022/05/31 03:43:37;;;;;;;3.27;2.90;;;;;;;15.34;46.92;98972.91;4178020;28;20226;-71
2022/05/31 03:45:41;;;;;;;4.30;3.00;;;;;;;15.82;46.31;98918.13;4177654;28;20735;-70
2022/05/31 03:47:42;;;;;;;4.17;2.93;;;;;;;15.53;46.39;98973.06;4177672;28;20384;-70
2022/05/31 03:49:44;;;;;;;4.07;3.00;;;;;;;15.56;46.47;98967.28;4179101;28;20293;-70
2022/05/31 03:51:46;;;;;;;5.03;3.43;;;;;;;15.68;45.95;98970.16;4182105;28;20827;-71
2022/05/31 03:53:48;;;;;;;3.43;3.10;;;;;;;15.35;46.59;98989.78;4176054;28;20227;-71
2022/05/31 03:55:49;;;;;;;3.83;3.07;;;;;;;15.45;46.59;98982.94;4175889;28;20867;-70
2022/05/31 03:57:52;;;;;;;5.47;2.90;;;;;;;15.46;46.49;98970.41;4180266;28;20231;-70
2022/05/31 03:59:53;;;;;;;3.33;2.90;;;;;;;15.74;46.14;98943.34;4175474;28;20809;-70
2022/05/31 04:01:55;;;;;;;4.93;3.43;;;;;;;15.26;46.99;98984.66;4179783;28;20616;-71
2022/05/31 04:03:57;;;;;;;3.27;2.67;;;;;;;15.19;47.04;98991.06;4182150;28;20235;-72
2022/05/31 04:05:59;;;;;;;5.00;2.97;;;;;;;15.32;46.85;98977.66;4177830;28;20258;-71
2022/05/31 04:08:04;;;;;;;3.63;2.53;;;;;;;15.33;46.88;98973.09;4179980;28;20295;-71
2022/05/31 04:10:07;;;;;;;4.83;2.97;;;;;;;15.35;46.55;98974.53;4178684;28;20651;-70
2022/05/31 04:12:09;;;;;;;4.13;3.17;;;;;;;15.04;47.29;99005.47;4180854;28;20231;-70
2022/05/31 04:14:11;;;;;;;3.77;3.23;;;;;;;15.23;46.60;98973.53;4184028;28;20285;-70
2022/05/31 04:16:15;;;;;;;4.80;3.30;;;;;;;14.87;47.63;99006.91;4181822;28;20292;-70
2022/05/31 04:18:24;;;;;;;3.23;2.97;;;;;;;15.12;47.42;98963.44;4180980;28;20325;-72
2022/05/31 04:20:26;;;;;;;3.80;3.40;;;;;;;15.02;47.14;98983.44;4184606;28;20285;-72
2022/05/31 04:22:27;;;;;;;5.10;3.50;;;;;;;14.85;47.70;98966.16;4181729;28;20284;-69
2022/05/31 04:24:29;;;;;;;3.30;3.00;;;;;;;14.79;47.78;98981.16;4185243;28;20228;-72
2022/05/31 04:26:46;;;;;;;4.90;3.37;;;;;;;14.35;48.95;99003.13;4183115;28;20757;-71
2022/05/31 04:28:48;;;;;;;3.60;2.90;;;;;;;14.38;48.83;98981.28;4178840;28;20231;-71
2022/05/31 04:30:50;;;;;;;3.63;3.13;;;;;;;15.03;47.88;98920.00;4180602;28;20243;-71
2022/05/31 04:32:53;;;;;;;3.70;3.20;;;;;;;14.40;49.14;98987.28;4182698;28;20233;-71
2022/05/31 04:34:54;;;;;;;4.50;3.67;;;;;;;14.92;47.83;98932.19;4181988;28;20227;-69
2022/05/31 04:36:57;;;;;;;3.63;3.23;;;;;;;14.75;48.56;98950.50;4185164;28;20331;-71
2022/05/31 04:38:59;;;;;;;6.13;3.33;;;;;;;14.71;48.63;98959.94;4182860;28;20241;-71
2022/05/31 04:41:02;;;;;;;4.20;3.00;;;;;;;15.10;47.61;98931.53;4185164;28;20871;-71
2022/05/31 04:43:03;;;;;;;4.20;3.67;;;;;;;15.34;47.17;98935.41;4176101;28;20765;-71
2022/05/31 04:45:06;;;;;;;4.43;3.00;;;;;;;15.52;47.05;98932.03;4180923;28;20258;-71
2022/05/31 04:47:08;;;;;;;5.07;3.50;;;;;;;14.91;48.18;99018.03;4178260;28;20234;-71
2022/05/31 04:49:10;;;;;;;4.43;3.20;;;;;;;15.44;47.25;98962.56;4183036;28;20322;-71
2022/05/31 04:51:12;;;;;;;6.40;3.37;;;;;;;15.09;48.08;98982.63;4181204;28;20227;-71
2022/05/31 04:53:14;;;;;;;4.27;3.30;;;;;;;15.19;47.78;98961.59;4183684;28;20383;-69
2022/05/31 04:55:15;;;;;;;3.57;3.07;;;;;;;14.43;49.53;99018.97;4182334;28;20277;-71
2022/05/31 04:57:17;;;;;;;4.50;3.37;;;;;;;15.18;48.20;98962.63;4182035;28;20230;-71
2022/05/31 04:59:19;;;;;;;3.47;3.17;;;;;;;14.92;48.57;98993.75;4180117;28;20227;-70
2022/05/31 05:01:22;;;;;;;3.83;2.90;;;;;;;14.71;48.94;98997.41;4181764;28;20231;-69
2022/05/31 05:03:24;;;;;;;5.67;3.50;;;;;;;14.93;48.84;98971.28;4179890;28;20334;-70
2022/05/31 05:05:26;;;;;;;3.53;3.23;;;;;;;15.35;48.01;98925.50;4183300;28;20238;-70
2022/05/31 05:07:30;;;;;;;3.27;2.97;;;;;;;14.89;48.87;98984.25;4184585;28;20224;-70
2022/05/31 05:09:32;;;;;;;5.03;3.00;;;;;;;15.39;47.78;98951.66;4177972;28;20235;-70
2022/05/31 05:11:33;;;;;;;3.57;3.03;;;;;;;15.46;47.65;98967.72;4166847;28;20684;-70
2022/05/31 05:13:36;;;;;;;3.20;2.90;;;;;;;14.70;48.87;99043.94;4181162;28;20232;-70
2022/05/31 05:15:39;;;;;;;4.50;2.90;;;;;;;14.94;48.64;99014.97;4180598;28;20284;-70
2022/05/31 05:17:41;;;;;;;4.57;3.10;;;;;;;15.42;47.75;98948.56;4183738;28;20965;-70
2022/05/31 05:19:42;;;;;;;4.77;3.37;;;;;;;16.13;46.90;98912.00;4184430;28;20825;-70
2022/05/31 05:21:44;;;;;;;4.60;2.97;;;;;;;15.31;48.23;99013.50;4181256;28;20331;-70
2022/05/31 05:23:46;;;;;;;4.17;3.13;;;;;;;15.80;47.57;98955.88;4179156;28;20235;-70
2022/05/31 05:25:50;;;;;;;4.13;2.90;;;;;;;15.95;47.20;98981.59;4182556;28;20897;-72
2022/05/31 05:27:52;;;;;;;4.33;3.00;;;;;;;15.63;47.47;99029.75;4181375;28;20284;-72
2022/05/31 05:32:13;;;;;;;4.20;3.33;;;;;;;15.37;47.92;99055.53;4182453;28;20816;-72
2022/05/31 05:34:15;;;;;;;3.10;2.80;;;;;;;15.99;47.37;98975.59;4181725;28;20890;-72
2022/05/31 05:36:18;;;;;;;3.40;2.80;;;;;;;15.54;47.88;99074.69;4183356;28;20249;-72
2022/05/31 05:38:20;;;;;;;4.27;2.87;;;;;;;15.25;48.02;99076.75;4181894;28;20234;-71
2022/05/31 05:40:21;;;;;;;3.07;2.73;;;;;;;16.56;45.88;98977.56;4182935;28;20292;-71
2022/05/31 05:42:23;;;;;;;4.63;3.10;;;;;;;16.02;46.99;99076.25;4180828;28;20761;-70
2022/05/31 05:44:26;;;;;;;3.40;2.87;;;;;;;16.25;46.73;99034.66;4175611;28;20218;-72
2022/05/31 05:46:28;;;;;;;2.90;2.50;;;;;;;16.47;46.40;99054.00;4179424;28;20340;-71
2022/05/31 05:48:30;;;;;;;3.43;2.60;;;;;;;16.07;47.48;99091.69;4176848;28;20215;-71
2022/05/31 05:50:37;;;;;;;3.50;2.80;;;;;;;16.26;46.55;99063.16;4178857;28;20375;-71
2022/05/31 05:52:40;;;;;;;6.00;2.77;;;;;;;16.31;46.84;99023.09;4176614;28;20227;-71
2022/05/31 05:54:42;;;;;;;3.57;3.27;;;;;;;16.38;46.54;99077.53;4178500;28;20235;-72
2022/05/31 05:56:43;;;;;;;5.53;3.17;;;;;;;15.76;47.51;99111.97;4182855;28;20246;-71
2022/05/31 05:58:46;;;;;;;3.07;2.77;;;;;;;16.51;46.83;99029.19;4183035;28;20334;-71
2022/05/31 06:00:52;;;;;;;3.40;2.70;;;;;;;16.91;45.88;99037.00;4183622;28;20300;-71
2022/05/31 06:03:17;;;;;;;3.23;2.80;;;;;;;17.12;45.34;99048.41;4183579;28;20227;-71
2022/05/31 06:05:25;;;;;;;3.60;2.60;;;;;;;16.27;46.93;99088.94;4177929;28;20736;-71
2022/05/31 06:07:31;;;;;;;2.77;2.50;;;;;;;17.01;45.68;99028.47;4179828;28;20230;-71
2022/05/31 06:09:35;;;;;;;3.53;2.60;;;;;;;17.28;45.36;99053.25;4183391;28;20229;-71
2022/05/31 06:11:53;;;;;;;3.33;2.80;;;;;;;17.62;45.29;99043.00;4181672;28;20797;-71
2022/05/31 06:14:01;;;;;;;4.93;3.07;;;;;;;17.21;45.95;99090.09;4179831;28;20785;-71
2022/05/31 06:16:05;;;;;;;4.83;3.03;;;;;;;16.84;45.75;99124.84;4181641;28;20234;-71
2022/05/31 06:18:13;;;;;;;3.30;2.93;;;;;;;16.25;46.87;99142.81;4178957;28;20238;-72
2022/05/31 06:20:15;;;;;;;7.77;3.10;;;;;;;16.51;46.44;99098.16;4178605;28;20746;-71
2022/05/31 06:22:19;;;;;;;3.07;2.67;;;;;;;16.83;46.33;99084.78;4182237;28;20254;-71
2022/05/31 06:24:23;;;;;;;4.70;2.70;;;;;;;16.49;46.20;99127.88;4181458;28;20364;-71
2022/05/31 06:26:25;;;;;;;2.67;2.47;;;;;;;17.09;45.30;99052.34;4175580;28;20293;-72
2022/05/31 06:28:27;;;;;;;3.73;2.60;;;;;;;16.80;46.61;99086.00;4181862;28;20290;-71
2022/05/31 06:30:29;;;;;;;2.70;2.50;;;;;;;17.57;44.34;99021.34;4179021;28;20906;-72
2022/05/31 06:32:31;;;;;;;2.57;2.30;;;;;;;17.53;44.90;99024.69;4178975;28;20260;-73
2022/05/31 06:34:32;;;;;;;3.13;2.83;;;;;;;17.10;46.31;99112.25;4177300;28;20211;-70
2022/05/31 06:36:34;;;;;;;4.60;2.70;;;;;;;17.71;45.17;99072.31;4183776;28;20766;-69
2022/05/31 06:38:36;;;;;;;4.33;3.13;;;;;;;17.89;44.46;99083.06;4180278;28;20279;-70
2022/05/31 06:40:40;;;;;;;3.00;2.70;;;;;;;17.92;44.77;99084.47;4178963;28;20242;-70
2022/05/31 06:42:42;;;;;;;2.43;2.10;;;;;;;17.29;46.45;99132.84;4181707;28;21144;-70
2022/05/31 06:44:44;;;;;;;2.73;2.37;;;;;;;17.79;44.37;99093.53;4183267;28;20643;-71
2022/05/31 06:46:45;;;;;;;4.43;2.50;;;;;;;17.40;44.89;99109.78;4177570;28;20310;-71
2022/05/31 06:48:47;;;;;;;3.13;2.30;;;;;;;17.99;44.65;99071.78;4182254;28;20651;-71
2022/05/31 06:50:49;;;;;;;2.83;2.37;;;;;;;17.89;44.76;99093.81;4180933;28;20242;-71
2022/05/31 06:57:35;;;;;;;4.70;3.00;;;;;;;18.07;44.48;99119.94;4180407;28;20227;-71
2022/05/31 06:59:37;;;;;;;4.33;2.40;;;;;;;18.37;45.11;99068.03;4179434;28;20231;-71
2022/05/31 07:01:40;;;;;;;2.60;2.40;;;;;;;18.00;44.46;99116.47;4180608;28;20235;-71
2022/05/31 07:03:42;;;;;;;2.50;2.30;;;;;;;17.82;44.75;99149.56;4179816;28;20586;-71
2022/05/31 07:05:43;;;;;;;3.30;2.90;;;;;;;17.37;45.92;99149.72;4178964;28;20246;-71
2022/05/31 07:07:46;;;;;;;5.47;2.90;;;;;;;17.84;45.05;99131.31;4181374;28;20304;-72
2022/05/31 07:09:47;;;;;;;5.17;2.97;;;;;;;18.05;44.73;99124.69;4183302;28;20472;-71
2022/05/31 07:11:49;;;;;;;6.93;2.90;;;;;;;17.69;46.32;99136.22;4181002;28;20631;-71
2022/05/31 07:13:51;;;;;;;6.93;3.30;;;;;;;17.59;45.22;99115.22;4178009;28;20231;-71
2022/05/31 07:15:53;;;;;;;5.27;2.70;;;;;;;18.36;43.93;99087.94;4180908;28;20227;-72
2022/05/31 07:18:14;;;;;;;3.70;2.90;;;;;;;18.44;43.59;99084.91;4180820;28;20262;-71
2022/05/31 07:20:16;;;;;;;3.33;2.87;;;;;;;18.56;43.95;99082.28;4181884;28;20296;-70
2022/05/31 07:22:18;;;;;;;2.90;2.70;;;;;;;18.34;44.76;99120.47;4181576;28;20289;-70
2022/05/31 07:24:20;;;;;;;3.53;3.00;;;;;;;18.93;43.45;99066.03;4176325;28;20288;-70
2022/05/31 07:26:24;;;;;;;3.23;2.80;;;;;;;18.44;45.25;99119.09;4180824;28;20254;-70
2022/05/31 07:28:41;;;;;;;3.23;2.97;;;;;;;17.14;46.40;99203.97;4174131;28;20631;-70
2022/05/31 07:30:43;;;;;;;4.00;3.10;;;;;;;17.58;45.37;99181.59;4180010;28;20293;-70
2022/05/31 07:32:44;;;;;;;3.40;2.73;;;;;;;17.90;45.90;99125.03;4180435;28;20242;-70
2022/05/31 07:35:07;;;;;;;5.67;2.70;;;;;;;17.70;45.49;99106.44;4180009;28;20234;-70
2022/05/31 07:37:10;;;;;;;3.27;2.73;;;;;;;18.43;43.32;99128.25;4178340;28;20231;-70
2022/05/31 07:39:15;;;;;;;3.73;2.60;;;;;;;18.88;42.58;99104.47;4181531;28;20304;-71
2022/05/31 07:41:17;;;;;;;7.43;2.53;;;;;;;19.09;42.42;99148.91;4182524;28;20292;-71
2022/05/31 07:43:21;;;;;;;3.20;2.90;;;;;;;17.03;47.19;99189.38;4178131;28;20235;-71
2022/05/31 07:45:25;;;;;;;4.23;2.57;;;;;;;16.74;48.87;99145.94;4180488;28;20219;-70
2022/05/31 07:47:26;;;;;;;4.00;3.23;;;;;;;17.85;46.59;99131.09;4178744;28;21003;-70
2022/05/31 07:49:31;;;;;;;3.17;2.87;;;;;;;18.15;45.96;99079.28;4182537;28;20268;-70
2022/05/31 07:51:33;;;;;;;3.43;2.87;;;;;;;18.36;46.98;99104.91;4179778;28;20228;-70
2022/05/31 07:53:35;;;;;;;3.70;3.30;;;;;;;18.88;44.59;99091.00;4185349;28;20227;-70
2022/05/31 07:55:37;;;;;;;5.10;3.10;;;;;;;19.08;44.08;99101.47;4183401;28;20317;-70
2022/05/31 07:59:59;;;;;;;4.63;3.30;;;;;;;18.29;45.54;99168.75;4182598;28;20235;-70
2022/05/31 08:02:01;;;;;;;4.77;2.60;;;;;;;19.00;44.63;99093.72;4185549;28;20242;-71
2022/05/31 08:04:03;;;;;;;4.97;2.90;;;;;;;19.02;43.63;99132.03;4182509;28;20227;-71
2022/05/31 08:06:10;;;;;;;3.63;3.00;;;;;;;19.61;42.97;99088.19;4181782;28;20369;-70
2022/05/31 08:08:11;;;;;;;3.10;2.80;;;;;;;19.26;44.21;99126.69;4184887;28;20239;-71
2022/05/31 08:10:33;;;;;;;5.40;2.77;;;;;;;19.54;42.77;99082.03;4179434;28;20306;-72
2022/05/31 08:12:35;;;;;;;3.60;3.00;;;;;;;18.91;44.59;99154.34;4180543;28;20304;-71
2022/05/31 08:14:37;;;;;;;4.40;2.90;;;;;;;19.44;43.57;99082.66;4182653;28;20739;-72
2022/05/31 08:16:39;;;;;;;3.97;2.73;;;;;;;19.79;43.06;99100.72;4184038;28;20231;-72
2022/05/31 08:18:42;;;;;;;3.47;2.70;;;;;;;19.41;44.06;99127.06;4182438;28;20231;-71
2022/05/31 08:20:44;;;;;;;3.77;3.13;;;;;;;19.55;42.67;99129.56;4182957;28;20456;-71
2022/05/31 08:22:46;;;;;;;5.77;2.80;;;;;;;20.21;42.11;99112.19;4185163;28;20263;-70
2022/05/31 08:24:49;;;;;;;5.00;3.13;;;;;;;20.02;42.79;99149.25;4181889;28;20735;-70
2022/05/31 08:26:51;;;;;;;4.43;3.50;;;;;;;20.20;42.12;99121.31;4177815;28;20227;-70
2022/05/31 08:28:54;;;;;;;6.70;3.27;;;;;;;20.25;42.21;99105.22;4183199;28;20227;-70
2022/05/31 08:31:00;;;;;;;3.83;3.33;;;;;;;20.16;42.91;99133.66;4181852;28;20292;-70
2022/05/31 08:33:02;;;;;;;3.97;2.87;;;;;;;19.04;45.46;99169.50;4183194;28;20231;-71
2022/05/31 08:35:06;;;;;;;3.93;3.13;;;;;;;19.67;42.47;99146.56;4178932;28;20285;-71
2022/05/31 08:37:10;;;;;;;6.03;2.90;;;;;;;19.20;43.72;99165.34;4183439;28;20623;-71
2022/05/31 08:39:12;;;;;;;3.87;2.93;;;;;;;19.68;44.34;99132.03;4185440;28;20288;-70
2022/05/31 08:41:25;;;;;;;3.10;2.90;;;;;;;18.68;45.18;99201.66;4181040;28;20677;-71
2022/05/31 08:43:50;;;;;;;5.67;2.53;;;;;;;19.61;44.91;99086.31;4182939;28;20259;-71
2022/05/31 08:45:53;;;;;;;3.70;2.80;;;;;;;20.43;41.73;99095.34;4178298;28;20235;-71
2022/05/31 08:48:02;;;;;;;2.63;2.43;;;;;;;20.54;43.38;99107.19;4182567;28;20696;-71
2022/05/31 08:53:07;;;;;;;2.73;2.53;;;;;;;20.28;42.66;99085.06;4182106;28;20257;-71
2022/05/31 08:57:55;;;;;;;3.43;3.07;;;;;;;19.48;43.89;99126.94;4180181;28;20488;-70
2022/05/31 09:00:03;;;;;;;2.83;2.50;;;;;;;20.36;41.66;99117.06;4180490;28;20228;-70
2022/05/31 09:02:15;;;;;;;3.20;2.90;;;;;;;19.72;43.93;99162.06;4184445;28;20231;-72
2022/05/31 09:04:32;;;;;;;6.00;2.77;;;;;;;19.87;42.92;99130.84;4179098;28;20718;-71
2022/05/31 09:06:59;;;;;;;5.47;2.60;;;;;;;20.04;42.07;99168.75;4182786;28;20491;-71
2022/05/31 09:09:09;;;;;;;4.33;2.97;;;;;;;20.28;41.77;99140.94;4179309;28;20674;-71
2022/05/31 09:11:19;;;;;;;3.80;2.40;;;;;;;20.36;42.67;99124.38;4182831;28;20231;-70
2022/05/31 09:13:25;;;;;;;7.10;2.90;;;;;;;20.80;41.76;99101.19;4182901;28;20272;-71
2022/05/31 09:15:52;;;;;;;6.20;2.30;;;;;;;21.09;40.61;99084.13;4178611;28;20276;-71
2022/05/31 09:18:22;;;;;;;6.30;2.93;;;;;;;20.61;41.26;99135.66;4182465;28;20473;-71
2022/05/31 09:20:29;;;;;;;4.40;2.20;;;;;;;19.97;43.04;99156.44;4180694;28;21017;-71
2022/05/31 09:22:31;;;;;;;4.57;2.53;;;;;;;20.89;41.78;99114.31;4177948;28;20219;-71
2022/05/31 09:24:39;;;;;;;7.07;2.60;;;;;;;21.10;41.79;99097.41;4179158;28;20683;-71
2022/05/31 09:27:07;;;;;;;5.30;2.67;;;;;;;20.74;41.17;99148.06;4182304;28;20573;-71
2022/05/31 09:29:21;;;;;;;6.50;2.40;;;;;;;21.50;41.42;99103.72;4183822;28;20227;-71
2022/05/31 09:31:40;;;;;;;5.20;2.93;;;;;;;22.11;38.95;99117.34;4182637;28;20239;-71
2022/05/31 09:33:55;;;;;;;5.33;2.67;;;;;;;22.21;38.08;99162.69;4178375;28;20243;-71
2022/05/31 09:36:15;;;;;;;4.70;2.83;;;;;;;22.48;38.67;99138.41;4180303;28;20304;-71
2022/05/31 09:38:49;;;;;;;4.32;2.30;;;;;;;21.85;40.03;99159.44;4182582;28;20392;-70
2022/05/31 09:41:07;;;;;;;4.25;2.38;;;;;;;22.51;38.18;99123.53;4177316;28;20235;-71
2022/05/31 09:43:35;;;;;;;9.57;3.03;;;;;;;20.91;40.65;99228.38;4178463;28;20389;-71
2022/05/31 09:45:48;;;;;;;6.17;2.37;;;;;;;21.44;40.97;99142.56;4177680;28;20242;-71
2022/05/31 09:47:51;;;;;;;6.95;2.50;;;;;;;21.87;40.92;99154.63;4182560;28;20285;-71
2022/05/31 09:49:58;;;;;;;6.30;2.20;;;;;;;23.08;38.56;99116.81;4182487;28;20233;-71
2022/05/31 09:52:00;;;;;;;6.97;2.40;;;;;;;23.10;38.69;99118.22;4183983;28;20774;-71
2022/05/31 09:59:11;;;;;;;3.15;2.58;;;;;;;21.82;40.74;99159.97;4182064;28;20243;-70
2022/05/31 10:01:13;;;;;;;8.20;2.50;;;;;;;22.04;39.68;99160.81;4181065;28;20310;-70
2022/05/31 10:03:15;;;;;;;5.85;2.58;;;;;;;21.99;39.46;99141.81;4181727;28;20277;-70
2022/05/31 10:05:21;;;;;;;7.82;2.70;;;;;;;20.85;40.28;99168.00;4183747;28;20219;-71
2022/05/31 10:07:32;;;;;;;7.18;2.03;;;;;;;21.50;40.42;99160.53;4181114;28;20293;-73
2022/05/31 10:09:41;;;;;;;6.03;3.22;;;;;;;20.62;40.49;99152.72;4176222;28;20313;-71
2022/05/31 10:11:45;;;;;;;7.25;2.38;;;;;;;21.60;39.89;99157.97;4181537;28;20293;-71
2022/05/31 10:14:15;;;;;;;5.15;2.10;;;;;;;22.35;38.06;99090.84;4177465;28;20235;-71